Time;durP1;ratioP1;P1;durP2;ratioP2;P2;SDS_P1;SDS_P2;PMS_P1;PMS_P2;Temp;Humidity;BMP_temperature;BMP_pressure;BME280_temperature;BME280_humidity;BME280_pressure;Samples;Min_cycle;Max_cycle;Signal;HPM_P1;HPM_P2
2021/07/21 00:00:39;;;;;;;33.78;17.00;;;15.90;99.90;;;;;;20895645;28;20033;-75
2021/07/21 00:10:40;;;;;;;30.13;16.45;;;15.50;99.90;;;;;;20878491;28;20037;-75
2021/07/21 00:20:44;;;;;;;29.70;17.23;;;15.40;99.90;;;;;;20876800;28;20511;-75
2021/07/21 00:30:45;;;;;;;33.03;16.92;;;15.40;99.90;;;;;;20910982;28;20104;-75
2021/07/21 00:40:49;;;;;;;36.65;15.32;;;15.20;99.90;;;;;;20892538;28;20037;-75
2021/07/21 00:50:54;;;;;;;31.33;15.32;;;14.90;99.90;;;;;;20891872;28;20036;-75
2021/07/21 01:00:57;;;;;;;28.02;16.35;;;14.80;99.90;;;;;;20891304;28;20067;-75
2021/07/21 01:11:12;;;;;;;30.00;16.35;;;14.70;99.90;;;;;;20908322;28;20036;-75
2021/07/21 01:21:32;;;;;;;29.23;15.70;;;14.60;99.90;;;;;;20890034;28;20040;-75
2021/07/21 01:31:38;;;;;;;28.70;16.58;;;14.60;99.90;;;;;;20889292;28;20029;-75
2021/07/21 01:41:45;;;;;;;26.92;14.73;;;14.40;99.90;;;;;;20889103;28;20098;-75
2021/07/21 01:51:47;;;;;;;28.08;14.93;;;14.30;99.90;;;;;;20888991;28;20025;-75
2021/07/21 02:01:50;;;;;;;32.30;17.20;;;14.10;99.90;;;;;;20888542;28;20517;-75
2021/07/21 02:12:04;;;;;;;36.67;17.67;;;14.00;99.90;;;;;;20888067;28;20029;-75
2021/07/21 02:22:05;;;;;;;;;;;14.00;99.90;;;;;;20888290;28;20029;-75
2021/07/21 02:32:35;;;;;;;32.55;16.63;;;14.00;99.90;;;;;;20887373;28;19952;-75
2021/07/21 02:42:38;;;;;;;41.60;15.32;;;13.80;99.90;;;;;;20897940;28;20040;-75
2021/07/21 02:53:09;;;;;;;36.85;17.05;;;13.50;99.90;;;;;;20901059;28;20120;-75
2021/07/21 03:03:33;;;;;;;29.60;15.63;;;13.40;99.90;;;;;;20918134;28;20041;-75
2021/07/21 03:13:52;;;;;;;30.60;16.30;;;13.40;99.90;;;;;;20899392;28;20031;-75
2021/07/21 03:23:55;;;;;;;34.00;15.73;;;13.20;99.90;;;;;;20882445;28;20032;-75
2021/07/21 03:34:23;;;;;;;35.10;16.25;;;13.30;99.90;;;;;;20897998;28;20455;-75
2021/07/21 03:44:33;;;;;;;29.23;16.00;;;13.10;99.90;;;;;;20897033;28;20554;-76
2021/07/21 03:54:36;;;;;;;31.13;15.75;;;13.10;99.90;;;;;;20896231;28;20029;-75
2021/07/21 04:04:49;;;;;;;27.63;15.10;;;13.10;99.90;;;;;;20895394;28;20037;-75
2021/07/21 04:14:56;;;;;;;33.28;16.00;;;13.10;99.90;;;;;;20894582;28;20090;-77
2021/07/21 04:25:16;;;;;;;25.48;14.77;;;12.90;99.90;;;;;;20893955;28;20120;-76
2021/07/21 04:35:20;;;;;;;28.08;14.25;;;13.20;99.90;;;;;;20822493;28;20117;-77
2021/07/21 04:45:29;;;;;;;22.85;12.93;;;13.60;99.90;;;;;;20762266;28;20511;-77
2021/07/21 04:55:30;;;;;;;22.37;13.17;;;14.30;99.90;;;;;;20783726;28;20045;-76
2021/07/21 05:05:33;;;;;;;26.85;14.15;;;14.90;99.90;;;;;;20741060;28;20064;-76
2021/07/21 05:15:37;;;;;;;26.33;13.65;;;15.30;99.90;;;;;;20733229;28;20037;-76
2021/07/21 05:25:47;;;;;;;29.20;14.80;;;15.50;99.90;;;;;;20787352;28;20044;-76
2021/07/21 05:36:06;;;;;;;30.73;15.80;;;15.60;99.90;;;;;;20870489;28;20496;-77
2021/07/21 05:46:13;;;;;;;27.77;16.13;;;15.70;99.90;;;;;;20840924;23;20073;-79
2021/07/21 05:56:16;;;;;;;37.22;17.90;;;15.90;99.90;;;;;;20853155;28;20022;-81
2021/07/21 06:06:25;;;;;;;32.10;17.70;;;16.40;99.90;;;;;;20829744;28;20030;-83
2021/07/21 06:16:35;;;;;;;29.17;16.75;;;16.50;99.90;;;;;;20786302;28;20042;-80
2021/07/21 06:26:36;;;;;;;35.87;17.97;;;16.90;99.90;;;;;;20789654;28;20038;-82
2021/07/21 06:37:08;;;;;;;35.45;17.17;;;17.20;99.90;;;;;;20791729;28;20034;-81
2021/07/21 06:47:10;;;;;;;33.65;16.02;;;17.60;99.90;;;;;;20776404;28;20038;-83
2021/07/21 06:57:12;;;;;;;27.83;15.77;;;18.10;99.90;;;;;;20811243;28;20433;-81
2021/07/21 07:07:33;;;;;;;31.02;16.25;;;18.50;99.90;;;;;;20781575;28;20041;-80
2021/07/21 07:17:53;;;;;;;32.80;17.58;;;19.20;99.90;;;;;;20798978;28;20041;-79
2021/07/21 07:27:54;;;;;;;28.83;15.77;;;19.60;99.90;;;;;;20793457;28;20037;-78
2021/07/21 07:37:54;;;;;;;30.30;15.00;;;20.10;99.90;;;;;;20788800;28;20046;-79
2021/07/21 07:47:56;;;;;;;21.63;13.30;;;20.50;99.90;;;;;;20779211;28;20065;-83
2021/07/21 07:57:57;;;;;;;26.00;14.15;;;21.40;99.90;;;;;;20779844;28;20030;-82
2021/07/21 08:08:00;;;;;;;23.90;13.37;;;21.80;99.90;;;;;;20783582;28;20037;-81
2021/07/21 08:18:02;;;;;;;19.55;12.25;;;22.30;99.90;;;;;;20769892;28;20030;-82
2021/07/21 08:28:03;;;;;;;18.20;11.70;;;22.90;99.90;;;;;;20803334;28;20018;-82
2021/07/21 08:38:08;;;;;;;24.67;11.55;;;22.90;99.90;;;;;;20777607;28;20093;-79
2021/07/21 08:48:12;;;;;;;19.55;10.73;;;24.20;99.90;;;;;;20785437;28;20030;-84
2021/07/21 08:58:13;;;;;;;19.15;8.82;;;24.20;99.90;;;;;;20783470;28;20117;-79
2021/07/21 09:08:14;;;;;;;16.38;9.90;;;24.30;99.90;;;;;;20759536;28;20519;-81
2021/07/21 09:18:17;;;;;;;18.00;10.35;;;24.70;99.90;;;;;;20782074;28;20034;-80
2021/07/21 09:28:20;;;;;;;17.95;9.65;;;26.00;99.90;;;;;;20785590;28;20029;-79
2021/07/21 09:38:24;;;;;;;16.25;9.73;;;26.30;99.90;;;;;;20760704;28;20093;-82
2021/07/21 09:48:35;;;;;;;17.42;10.68;;;26.50;99.90;;;;;;20768374;28;20049;-82
2021/07/21 09:58:36;;;;;;;15.43;9.93;;;27.40;99.90;;;;;;20779057;28;20030;-82
2021/07/21 10:08:43;;;;;;;18.77;11.30;;;27.70;99.90;;;;;;20779270;28;20064;-79
2021/07/21 10:19:03;;;;;;;19.35;11.30;;;27.40;99.90;;;;;;20778771;28;20030;-80
2021/07/21 10:29:06;;;;;;;17.98;10.85;;;28.00;99.90;;;;;;20770328;28;20030;-81
2021/07/21 10:39:13;;;;;;;19.77;11.73;;;28.90;99.90;;;;;;20750899;28;20061;-81
2021/07/21 10:49:41;;;;;;;15.55;10.73;;;28.30;99.90;;;;;;20753610;28;20029;-80
2021/07/21 10:59:42;;;;;;;16.02;11.52;;;30.20;99.90;;;;;;20823442;28;20510;-79
2021/07/21 11:09:48;;;;;;;16.85;10.52;;;29.90;99.90;;;;;;20781589;28;20037;-82
2021/07/21 11:19:50;;;;;;;19.58;11.75;;;30.50;99.90;;;;;;20787689;28;20042;-81
2021/07/21 11:29:51;;;;;;;20.08;12.45;;;30.60;99.90;;;;;;20758013;28;20037;-81
2021/07/21 11:39:57;;;;;;;17.92;11.07;;;30.80;99.90;;;;;;20790027;22;20046;-79
2021/07/21 11:49:58;;;;;;;17.40;11.90;;;30.20;99.90;;;;;;20865118;28;20423;-78
2021/07/21 12:00:00;;;;;;;19.17;11.45;;;30.50;99.90;;;;;;20869461;28;20029;-79
2021/07/21 12:10:17;;;;;;;17.48;12.25;;;31.40;99.90;;;;;;20859433;28;20116;-81
2021/07/21 12:20:18;;;;;;;17.30;10.77;;;30.00;99.90;;;;;;20856380;28;20037;-82
2021/07/21 12:30:21;;;;;;;16.33;11.82;;;30.20;99.90;;;;;;20873937;28;20056;-81
2021/07/21 12:40:26;;;;;;;22.67;11.93;;;30.30;99.90;;;;;;20858462;28;20041;-80
2021/07/21 12:50:32;;;;;;;15.90;11.38;;;29.90;99.90;;;;;;20857820;28;20046;-80
2021/07/21 13:00:39;;;;;;;19.35;11.18;;;29.40;99.90;;;;;;20878401;28;20112;-80
2021/07/21 13:10:44;;;;;;;16.92;11.57;;;30.20;99.90;;;;;;20878579;28;20029;-80
2021/07/21 13:20:46;;;;;;;16.23;11.25;;;29.80;99.90;;;;;;20875847;28;20030;-79
2021/07/21 13:30:47;;;;;;;16.90;11.50;;;29.50;99.90;;;;;;20866803;28;20038;-81
2021/07/21 13:41:08;;;;;;;16.95;11.38;;;30.30;99.90;;;;;;20823180;28;20511;-81
2021/07/21 13:51:13;;;;;;;17.38;11.48;;;29.90;99.90;;;;;;20821037;28;20499;-80
2021/07/21 14:01:14;;;;;;;18.45;11.27;;;30.00;99.90;;;;;;20826393;28;20033;-80
2021/07/21 14:11:15;;;;;;;18.00;12.52;;;30.50;99.90;;;;;;20874560;28;20040;-79
2021/07/21 14:21:16;;;;;;;19.48;12.23;;;30.10;99.90;;;;;;20886166;28;20040;-80
2021/07/21 14:31:17;;;;;;;22.73;13.35;;;29.40;99.90;;;;;;20835292;28;20029;-81
2021/07/21 14:41:18;;;;;;;16.48;11.30;;;29.90;99.90;;;;;;20850254;28;20033;-80
2021/07/21 14:51:19;;;;;;;15.48;10.90;;;29.70;99.90;;;;;;20833804;28;20391;-79
2021/07/21 15:01:20;;;;;;;21.70;12.27;;;29.80;99.90;;;;;;20839851;28;20047;-79
2021/07/21 15:11:21;;;;;;;16.95;11.30;;;29.70;99.90;;;;;;20831714;28;20033;-80
2021/07/21 15:21:22;;;;;;;17.67;11.15;;;29.40;99.90;;;;;;20825341;28;20044;-80
2021/07/21 15:31:22;;;;;;;17.33;10.27;;;29.60;99.90;;;;;;20811347;28;20036;-79
2021/07/21 15:41:23;;;;;;;16.48;10.68;;;29.00;99.90;;;;;;20841316;28;20040;-79
2021/07/21 15:51:24;;;;;;;19.23;11.80;;;29.00;99.90;;;;;;20878436;28;20037;-78
2021/07/21 16:01:30;;;;;;;17.33;10.52;;;28.50;99.90;;;;;;20899932;28;20423;-80
2021/07/21 16:11:31;;;;;;;16.60;10.35;;;28.30;99.90;;;;;;20893397;28;20036;-81
2021/07/21 16:21:33;;;;;;;18.02;11.05;;;28.00;99.90;;;;;;20876242;28;20068;-80
2021/07/21 16:31:34;;;;;;;18.40;10.40;;;27.70;99.90;;;;;;20881048;28;20124;-77
2021/07/21 16:41:34;;;;;;;16.20;10.00;;;27.70;99.90;;;;;;20868837;28;20499;-77
2021/07/21 16:51:35;;;;;;;16.33;10.40;;;27.60;99.90;;;;;;20791117;28;20044;-74
2021/07/21 17:01:36;;;;;;;16.67;10.18;;;27.40;99.90;;;;;;20790603;28;20563;-76
2021/07/21 17:11:37;;;;;;;16.58;10.30;;;27.30;99.90;;;;;;20807373;28;20048;-75
2021/07/21 17:21:38;;;;;;;23.63;13.00;;;27.20;99.90;;;;;;20807716;28;20114;-75
2021/07/21 17:31:39;;;;;;;22.23;13.10;;;26.90;99.90;;;;;;20806514;28;20061;-75
2021/07/21 17:41:41;;;;;;;22.73;12.88;;;26.70;99.90;;;;;;20829444;22;20053;-76
2021/07/21 17:51:42;;;;;;;17.80;11.00;;;26.70;99.90;;;;;;20788187;28;20112;-76
2021/07/21 18:01:43;;;;;;;19.08;11.52;;;26.40;99.90;;;;;;20805721;28;20041;-76
2021/07/21 18:11:45;;;;;;;19.90;11.85;;;26.40;99.90;;;;;;20816268;28;20563;-76
2021/07/21 18:21:46;;;;;;;18.00;11.65;;;26.10;99.90;;;;;;20820728;28;20037;-76
2021/07/21 18:31:46;;;;;;;22.73;12.05;;;25.80;99.90;;;;;;20820447;28;20172;-76
2021/07/21 18:41:47;;;;;;;;;;;25.40;99.90;;;;;;20813443;28;20125;-76
2021/07/21 18:51:48;;;;;;;22.30;11.80;;;24.90;99.90;;;;;;20759980;28;19945;-75
2021/07/21 19:01:49;;;;;;;;;;;24.00;99.90;;;;;;20790611;28;20037;-75
2021/07/21 19:11:50;;;;;;;22.23;12.17;;;23.30;99.90;;;;;;20799686;28;19917;-76
2021/07/21 19:21:51;;;;;;;28.08;13.77;;;22.80;99.90;;;;;;20741356;28;20037;-75
2021/07/21 19:31:52;;;;;;;18.77;11.80;;;22.30;99.90;;;;;;20815542;28;20044;-75
2021/07/21 19:41:53;;;;;;;22.87;13.70;;;21.90;99.90;;;;;;20796888;28;20474;-75
2021/07/21 19:51:55;;;;;;;29.10;13.90;;;21.50;99.90;;;;;;20795336;28;20330;-75
2021/07/21 20:01:55;;;;;;;20.65;12.40;;;21.50;99.90;;;;;;20813649;28;20040;-76
2021/07/21 20:11:56;;;;;;;25.73;12.53;;;21.10;99.90;;;;;;20753614;28;20029;-75
2021/07/21 20:21:58;;;;;;;28.47;13.97;;;20.80;99.90;;;;;;20712648;28;20037;-75
2021/07/21 20:31:59;;;;;;;22.85;13.25;;;20.50;99.90;;;;;;20710468;28;20500;-75
2021/07/21 20:42:01;;;;;;;22.13;12.73;;;20.30;99.90;;;;;;20751376;28;20068;-76
2021/07/21 20:52:02;;;;;;;23.38;13.02;;;19.90;99.90;;;;;;20777906;28;20345;-75
2021/07/21 21:02:03;;;;;;;22.85;13.18;;;19.80;99.90;;;;;;20808729;28;20048;-76
2021/07/21 21:12:05;;;;;;;22.10;13.03;;;20.10;99.90;;;;;;20808567;28;20045;-76
2021/07/21 21:22:06;;;;;;;21.52;13.60;;;19.90;99.90;;;;;;20844448;28;20469;-75
2021/07/21 21:32:07;;;;;;;21.03;13.53;;;19.60;99.90;;;;;;20887396;28;20151;-74
2021/07/21 21:42:08;;;;;;;21.85;12.63;;;19.30;99.90;;;;;;20801914;28;20035;-75
2021/07/21 21:52:09;;;;;;;25.03;12.83;;;18.90;99.90;;;;;;20782272;28;20056;-75
2021/07/21 22:02:10;;;;;;;27.53;13.60;;;18.80;99.90;;;;;;20782270;28;20044;-75
2021/07/21 22:12:11;;;;;;;19.93;12.70;;;18.40;99.90;;;;;;20804659;28;20467;-75
2021/07/21 22:33:33;;;;;;;23.70;12.95;;;18.30;99.90;;;;;;20822738;28;20040;-76
2021/07/21 22:43:38;;;;;;;28.05;14.65;;;17.90;99.90;;;;;;20822430;28;20079;-75
2021/07/21 22:53:40;;;;;;;21.17;12.48;;;17.80;99.90;;;;;;20823559;28;20040;-75
2021/07/21 23:04:18;;;;;;;23.17;12.50;;;17.60;99.90;;;;;;20835937;28;20021;-75
2021/07/21 23:14:57;;;;;;;20.33;13.00;;;17.30;99.90;;;;;;20834000;28;20033;-74
2021/07/21 23:24:58;;;;;;;24.90;13.68;;;17.10;99.90;;;;;;20800786;28;20431;-74
2021/07/21 23:34:59;;;;;;;;;;;16.70;99.90;;;;;;20834291;28;20506;-75
2021/07/21 23:45:00;;;;;;;23.38;13.57;;;16.60;99.90;;;;;;20861556;22;19921;-80
2021/07/21 23:55:01;;;;;;;27.77;13.77;;;16.50;99.90;;;;;;20877657;28;20127;-80
